Adfines Star — 9HA2916 — position and weather

sailwx.info

Track history (hours):
 
Tides and Currents Weather Stations Pressure Air Temp Water Temp Dewpoint Dewpoint Depression Visibility Wind Speed Wind Dir Waves Ship Positions

Adfines Star

Last reported at 2018-Apr-18 05:05 UTC. Time now 2018-Apr-19 17:09 UTC.
Position N 49°49' W 003°49'.

Length 162 m; draft 9 m.

Type: Tanker. MMSI: 256735000.

Date/timePositionNaut miles runAvg speedWind from/ knotsBaromVisibWave heightAir tempDewpointWater temp
2018-Apr-18 05:05N 49°49' W 003°49'1 9.8
2018-Apr-18 05:00N 49°49' W 003°48'810.2
2018-Apr-18 04:14N 49°51' W 003°36'311.4
2018-Apr-18 03:58N 49°52' W 003°31'612.5
2018-Apr-18 03:30N 49°54' W 003°23'713.0
2018-Apr-18 03:00N 49°55' W 003°13'713.6
2018-Apr-18 02:30N 49°57' W 003°03'713.9
2018-Apr-18 02:00N 49°60' W 002°52'713.8
2018-Apr-18 01:30N 50°02' W 002°42'3411.0
2018-Apr-17 22:25N 50°11' W 001°51'3 7.5
2018-Apr-17 22:00N 50°12' W 001°46'3 6.9
2018-Apr-17 21:30N 50°13' W 001°41'3 6.7
2018-Apr-17 21:00N 50°14' W 001°36'3 6.6
2018-Apr-17 20:30N 50°15' W 001°31'3 6.7
2018-Apr-17 20:00N 50°15' W 001°26'4 7.3
2018-Apr-17 19:30N 50°16' W 001°21'3912.3
2018-Apr-17 16:23N 50°27' W 000°23'514.2
2018-Apr-17 16:01N 50°29' W 000°15'713.9
2018-Apr-17 15:30N 50°31' W 000°04'713.7
2018-Apr-17 15:00N 50°33' E 000°06'713.3
2018-Apr-17 14:30N 50°35' E 000°16'613.0
2018-Apr-17 14:01N 50°36' E 000°26'612.3
2018-Apr-17 13:31N 50°37' E 000°35'611.6
2018-Apr-17 13:01N 50°41' E 000°43'611.1
2018-Apr-17 12:30N 50°44' E 000°50'510.6
2018-Apr-17 12:01N 50°48' E 000°56'510.6
2018-Apr-17 11:30N 50°51' E 001°03'510.4
2018-Apr-17 11:00N 50°54' E 001°09'710.9
2018-Apr-17 10:21N 50°59' E 001°18'411.9
2018-Apr-17 09:58N 51°02' E 001°23'613.6
2018-Apr-17 09:30N 51°06' E 001°31'715.1
2018-Apr-17 09:00N 51°11' E 001°40'715.0
2018-Apr-17 08:30N 51°16' E 001°48'714.7
2018-Apr-17 08:00N 51°22' E 001°55'611.9
2018-Apr-17 07:30N 51°24' E 002°04'713.2
2018-Apr-17 07:00N 51°21' E 002°13'612.8
2018-Apr-17 06:30N 51°22' E 002°24'713.3
2018-Apr-17 06:00N 51°23' E 002°34'712.9
2018-Apr-17 05:30N 51°22' E 002°45'711.8
2018-Apr-17 04:56N 51°23' E 002°55'512.0
2018-Apr-17 04:31N 51°25' E 003°03'612.4
2018-Apr-17 04:00N 51°25' E 003°13'612.5
2018-Apr-17 03:30N 51°25' E 003°23'612.4
2018-Apr-17 03:00N 51°26' E 003°33'611.4
2018-Apr-17 02:30N 51°26' E 003°42'1 2.4
2018-Apr-17 01:55N 51°25' E 003°44'0 0.0
2018-Apr-16 22:58N 51°25' E 003°44'0 0.0
2018-Apr-16 21:46N 51°25' E 003°44'0 0.0
2018-Apr-16 13:04N 51°25' E 003°44'0 0.0
2018-Apr-16 12:46N 51°25' E 003°44'0 0.0
2018-Apr-16 12:28N 51°25' E 003°44'0 0.0
2018-Apr-16 11:58N 51°25' E 003°44'0 0.0
2018-Apr-16 11:22N 51°25' E 003°44'0 0.0
2018-Apr-16 10:58N 51°25' E 003°44'0 0.0
2018-Apr-16 10:16N 51°25' E 003°44'0 0.0
2018-Apr-16 09:46N 51°25' E 003°44'0 0.0
2018-Apr-16 09:22N 51°25' E 003°44'0 0.0
2018-Apr-16 08:58N 51°25' E 003°44'0 0.0
2018-Apr-16 08:22N 51°25' E 003°44'0 0.0
2018-Apr-16 06:37N 51°25' E 003°44'0 0.0
2018-Apr-16 06:28N 51°25' E 003°44'0 0.0
2018-Apr-16 05:40N 51°25' E 003°44'0 0.0
2018-Apr-16 05:28N 51°25' E 003°44'0 0.0
2018-Apr-16 04:34N 51°25' E 003°44'0 0.1
2018-Apr-16 04:28N 51°25' E 003°44'0 0.0
2018-Apr-16 03:52N 51°25' E 003°44'0 0.0
2018-Apr-16 03:10N 51°25' E 003°44'0 0.0
2018-Apr-16 02:52N 51°25' E 003°44'0 0.0
2018-Apr-16 01:46N 51°25' E 003°44'0 0.0
2018-Apr-16 01:31N 51°25' E 003°44'1 2.6
2018-Apr-16 01:01N 51°25' E 003°42'4 6.9
2018-Apr-16 00:30N 51°26' E 003°36'510.9
2018-Apr-16 00:01N 51°29' E 003°30'611.3
2018-Apr-15 23:29N 51°34' E 003°25'612.0
2018-Apr-15 22:57N 51°40' E 003°19'612.3
2018-Apr-15 22:30N 51°45' E 003°16'2 3.9
2018-Apr-15 21:54N 51°46' E 003°19'0 0.0
2018-Apr-15 19:57N 51°46' E 003°19'0 0.0
2018-Apr-15 19:30N 51°46' E 003°19'0 0.0
2018-Apr-15 19:00N 51°46' E 003°19'0 0.0
2018-Apr-15 18:30N 51°46' E 003°19'0 0.1
2018-Apr-15 17:57N 51°46' E 003°19'0 0.1
2018-Apr-15 17:18N 51°46' E 003°19'0 0.1
2018-Apr-15 16:57N 51°46' E 003°19'0 0.1
2018-Apr-15 16:24N 51°46' E 003°19'0 0.0
2018-Apr-15 15:51N 51°46' E 003°19'0 0.0
2018-Apr-15 14:03N 51°46' E 003°19'0 0.1
2018-Apr-15 13:57N 51°46' E 003°19'0 0.0
2018-Apr-15 13:27N 51°46' E 003°19'0 0.1
2018-Apr-15 13:00N 51°46' E 003°19'0 0.0
2018-Apr-15 12:30N 51°46' E 003°19'0 0.0
2018-Apr-15 09:51N 51°46' E 003°19'0 0.0
2018-Apr-15 09:30N 51°46' E 003°19'0 0.0
2018-Apr-15 08:54N 51°46' E 003°19'0 0.0
2018-Apr-15 07:21N 51°46' E 003°19'0 0.0
2018-Apr-15 07:00N 51°46' E 003°19'0 0.0
2018-Apr-15 06:27N 51°46' E 003°19'0 0.0
2018-Apr-15 06:00N 51°46' E 003°19'0 0.0
2018-Apr-15 05:15N 51°46' E 003°19'0 0.1
2018-Apr-15 04:42N 51°46' E 003°19'0 0.1
2018-Apr-15 04:21N 51°46' E 003°19'0 0.0
2018-Apr-15 03:24N 51°46' E 003°19'0 0.0
2018-Apr-15 02:51N 51°46' E 003°19'0 0.0
2018-Apr-15 02:24N 51°46' E 003°19'0 0.0
2018-Apr-15 01:57N 51°46' E 003°19'0 0.0
2018-Apr-15 01:24N 51°46' E 003°19'0 0.0
2018-Apr-15 01:00N 51°46' E 003°19'0 0.0
2018-Apr-15 00:30N 51°46' E 003°19'0 0.0
2018-Apr-15 00:00N 51°46' E 003°19'0 0.1
2018-Apr-14 23:27N 51°46' E 003°19'0 0.0
2018-Apr-14 16:54N 51°46' E 003°19'0 0.0
2018-Apr-14 13:30N 51°46' E 003°19'0 0.0
2018-Apr-14 12:33N 51°46' E 003°19'0 0.0
2018-Apr-14 12:27N 51°46' E 003°19'0 0.0
2018-Apr-14 11:42N 51°46' E 003°19'0 0.1
2018-Apr-14 11:27N 51°46' E 003°19'0 0.1
2018-Apr-14 10:57N 51°46' E 003°19'0 0.2
2018-Apr-14 10:24N 51°46' E 003°19'2 4.8
2018-Apr-14 10:00N 51°45' E 003°18'5 9.9
2018-Apr-14 09:29N 51°40' E 003°20'612.3
2018-Apr-14 09:00N 51°35' E 003°24'611.1
2018-Apr-14 08:30N 51°30' E 003°29'510.3
2018-Apr-14 08:00N 51°26' E 003°35'612.0
2018-Apr-14 07:30N 51°24' E 003°44'1 2.3
2018-Apr-14 06:58N 51°24' E 003°46'0 0.0
2018-Apr-14 06:28N 51°24' E 003°46'0 0.0
2018-Apr-14 05:58N 51°24' E 003°46'0 0.0
2018-Apr-14 05:28N 51°24' E 003°46'0 0.0
2018-Apr-14 04:58N 51°24' E 003°46'0 0.0
2018-Apr-14 04:28N 51°24' E 003°46'0 0.0
2018-Apr-14 03:58N 51°24' E 003°46'0 0.0
2018-Apr-14 03:25N 51°24' E 003°46'0 0.1
2018-Apr-14 02:58N 51°24' E 003°46'0 0.1
2018-Apr-14 02:28N 51°24' E 003°46'0 0.0
2018-Apr-14 01:58N 51°24' E 003°46'0 0.3
2018-Apr-14 01:28N 51°24' E 003°46'0 0.0
2018-Apr-14 00:58N 51°24' E 003°46'0 0.0
2018-Apr-14 00:28N 51°24' E 003°46'0 0.0
2018-Apr-13 23:58N 51°24' E 003°46'0 0.0
2018-Apr-13 23:28N 51°24' E 003°46'0 0.0
2018-Apr-13 22:58N 51°24' E 003°46'0 0.0
2018-Apr-13 22:28N 51°24' E 003°46'0 0.0
2018-Apr-13 21:58N 51°24' E 003°46'0 0.0
2018-Apr-13 21:28N 51°24' E 003°46'0 0.0
2018-Apr-13 20:55N 51°24' E 003°46'0 0.0
2018-Apr-13 20:25N 51°24' E 003°46'0 0.0
2018-Apr-13 19:58N 51°24' E 003°46'0 0.2
2018-Apr-13 19:28N 51°24' E 003°46'0 0.1
2018-Apr-13 18:58N 51°24' E 003°46'0 0.0
2018-Apr-13 18:28N 51°24' E 003°46'0 0.0
2018-Apr-13 17:58N 51°24' E 003°46'0 0.1
2018-Apr-13 17:25N 51°24' E 003°46'0 0.0
2018-Apr-13 16:58N 51°24' E 003°46'0 0.0
2018-Apr-13 16:25N 51°24' E 003°46'0 0.0
2018-Apr-13 15:55N 51°24' E 003°46'0 0.0
2018-Apr-13 15:28N 51°24' E 003°46'0 0.0
2018-Apr-13 14:58N 51°24' E 003°46'0 0.0
2018-Apr-13 14:28N 51°24' E 003°46'0 0.3
2018-Apr-13 13:58N 51°24' E 003°46'0 0.2
2018-Apr-13 13:28N 51°24' E 003°46'0 0.0
2018-Apr-13 12:58N 51°24' E 003°46'0 0.0
2018-Apr-13 12:25N 51°24' E 003°46'0 0.0
2018-Apr-13 11:58N 51°24' E 003°46'0 0.0
2018-Apr-13 11:28N 51°24' E 003°46'0 0.0
2018-Apr-13 10:55N 51°24' E 003°46'0 0.0
2018-Apr-13 10:28N 51°24' E 003°46'0 0.0
2018-Apr-13 09:58N 51°24' E 003°46'0 0.0
2018-Apr-13 09:28N 51°24' E 003°46'0 0.0
2018-Apr-13 08:55N 51°24' E 003°46'0 1.0
2018-Apr-13 08:30N 51°24' E 003°45'4 7.3
2018-Apr-13 08:01N 51°26' E 003°41'612.5
2018-Apr-13 07:30N 51°27' E 003°31'814.4
2018-Apr-13 06:58N 51°34' E 003°25'612.7
2018-Apr-13 06:30N 51°39' E 003°19'9 1.8
2018-Apr-13 01:29N 51°48' E 003°20'0 0.1
2018-Apr-12 23:51N 51°48' E 003°20'1 2.9
2018-Apr-12 23:30N 51°48' E 003°18'3 5.8
2018-Apr-12 22:57N 51°46' E 003°14'18 3.0
2018-Apr-12 16:54N 52°03' E 003°20'1412.5
2018-Apr-12 15:47N 52°04' E 003°43'412.7
2018-Apr-12 15:30N 52°03' E 003°49'4 8.5
2018-Apr-12 15:00N 52°02' E 003°55'612.4
2018-Apr-12 14:30N 51°59' E 004°04'612.7
2018-Apr-12 14:00N 51°56' E 004°13'510.3
2018-Apr-12 13:30N 51°54' E 004°21'0 0.0
2018-Apr-12 03:14N 51°53' E 004°21'0 0.0
2018-Apr-12 02:50N 51°53' E 004°21'0 0.0
2018-Apr-12 02:26N 51°53' E 004°21'0 0.0
2018-Apr-12 01:50N 51°53' E 004°21'0 0.0
2018-Apr-12 01:26N 51°53' E 004°21'0 0.0
2018-Apr-12 00:44N 51°53' E 004°21'0 0.0
2018-Apr-12 00:20N 51°53' E 004°21'0 0.0
2018-Apr-11 23:26N 51°53' E 004°21'0 0.0
2018-Apr-11 22:38N 51°53' E 004°21'0 0.0
2018-Apr-11 22:26N 51°53' E 004°21'0 0.0
2018-Apr-11 20:02N 51°53' E 004°21'0 0.0
2018-Apr-11 18:17N 51°53' E 004°21'0 0.0
2018-Apr-11 17:59N 51°53' E 004°21'0 0.0
2018-Apr-11 05:56N 51°53' E 004°21'0 0.0
2018-Apr-11 05:20N 51°53' E 004°21'0 0.0
2018-Apr-11 04:50N 51°53' E 004°21'0 0.0
2018-Apr-11 04:20N 51°53' E 004°21'0 0.0
2018-Apr-11 02:38N 51°53' E 004°21'0 0.0
2018-Apr-11 02:23N 51°53' E 004°21'0 0.0
2018-Apr-11 01:50N 51°53' E 004°21'0 0.0
2018-Apr-11 00:50N 51°53' E 004°21'0 0.0
2018-Apr-11 00:20N 51°53' E 004°21'0 0.0
2018-Apr-10 23:56N 51°53' E 004°21'0 0.0
2018-Apr-10 23:26N 51°53' E 004°21'0 0.0
2018-Apr-10 23:00N 51°53' E 004°21'0 0.3
2018-Apr-10 22:30N 51°53' E 004°21'1 1.8
2018-Apr-10 22:00N 51°54' E 004°19'3 6.0
2018-Apr-10 21:30N 51°51' E 004°22'3 5.2
2018-Apr-10 21:00N 51°50' E 004°26'3 5.3
2018-Apr-10 20:30N 51°50' E 004°30'4 7.2
2018-Apr-10 20:00N 51°48' E 004°35'2 4.4
2018-Apr-10 19:30N 51°47' E 004°38'0 0.0
2018-Apr-10 18:58N 51°47' E 004°38'0 0.0
2018-Apr-10 18:16N 51°47' E 004°38'0 0.0
2018-Apr-10 17:52N 51°47' E 004°38'0 0.0
2018-Apr-10 17:28N 51°47' E 004°38'0 0.0
2018-Apr-10 16:46N 51°47' E 004°38'0 0.0
2018-Apr-10 16:28N 51°47' E 004°38'0 0.0
2018-Apr-10 15:40N 51°47' E 004°38'0 0.0
2018-Apr-10 15:25N 51°47' E 004°38'0 0.0
2018-Apr-10 14:52N 51°47' E 004°38'0 0.0
2018-Apr-10 14:22N 51°47' E 004°38'0 0.0
2018-Apr-10 13:58N 51°47' E 004°38'0 0.0
2018-Apr-10 12:46N 51°47' E 004°38'0 0.0
2018-Apr-10 12:28N 51°47' E 004°38'0 0.0
2018-Apr-10 11:31N 51°47' E 004°38'0 0.0
2018-Apr-10 10:34N 51°47' E 004°38'0 0.0
2018-Apr-10 10:22N 51°47' E 004°38'0 0.0
2018-Apr-10 09:55N 51°47' E 004°38'0 0.0
2018-Apr-10 09:28N 51°47' E 004°38'0 0.0
2018-Apr-10 08:28N 51°47' E 004°38'0 0.0
2018-Apr-10 07:58N 51°47' E 004°38'0 0.0
2018-Apr-10 07:28N 51°47' E 004°38'0 0.0
2018-Apr-10 06:58N 51°47' E 004°38'0 0.0
2018-Apr-10 06:28N 51°47' E 004°38'0 0.0
2018-Apr-10 05:58N 51°47' E 004°38'0 0.0
2018-Apr-10 05:25N 51°47' E 004°38'0 0.0
2018-Apr-10 04:22N 51°47' E 004°38'0 0.0
2018-Apr-10 03:46N 51°47' E 004°38'0 0.0
2018-Apr-10 03:28N 51°47' E 004°38'0 0.0
2018-Apr-10 02:52N 51°47' E 004°38'0 0.0
2018-Apr-10 02:25N 51°47' E 004°38'0 0.0
2018-Apr-10 01:58N 51°47' E 004°38'0 0.0
2018-Apr-10 01:28N 51°47' E 004°38'0 0.0
2018-Apr-10 00:58N 51°47' E 004°38'0 0.0
2018-Apr-10 00:10N 51°47' E 004°38'0 0.0
2018-Apr-09 23:55N 51°47' E 004°38'0 0.0
2018-Apr-09 23:22N 51°47' E 004°38'0 0.0
2018-Apr-09 22:55N 51°47' E 004°38'0 0.0
2018-Apr-09 22:28N 51°47' E 004°38'0 0.0
2018-Apr-09 21:55N 51°47' E 004°38'0 0.0
2018-Apr-09 21:19N 51°47' E 004°38'0 0.0
2018-Apr-09 20:58N 51°47' E 004°38'0 0.0
2018-Apr-09 20:28N 51°47' E 004°38'0 0.0
2018-Apr-09 19:55N 51°47' E 004°38'0 0.0
2018-Apr-09 19:19N 51°47' E 004°38'0 0.0
2018-Apr-09 18:49N 51°47' E 004°38'0 0.0
2018-Apr-09 18:25N 51°47' E 004°38'0 0.0
2018-Apr-09 17:49N 51°47' E 004°38'0 0.0
2018-Apr-09 17:22N 51°47' E 004°38'0 0.0
2018-Apr-09 16:58N 51°47' E 004°38'0 0.0
2018-Apr-09 16:25N 51°47' E 004°38'0 0.0
2018-Apr-09 15:52N 51°47' E 004°38'0 0.0
2018-Apr-09 15:19N 51°47' E 004°38'0 0.0
2018-Apr-09 14:58N 51°47' E 004°38'0 0.0
2018-Apr-09 14:28N 51°47' E 004°38'0 0.0
2018-Apr-09 13:55N 51°47' E 004°38'0 0.0
2018-Apr-09 13:28N 51°47' E 004°38'0 0.0
2018-Apr-09 12:58N 51°47' E 004°38'0 0.0
2018-Apr-09 12:13N 51°47' E 004°38'0 0.0
2018-Apr-09 11:58N 51°47' E 004°38'0 0.0
2018-Apr-09 11:28N 51°47' E 004°38'0 0.0
2018-Apr-09 10:55N 51°47' E 004°38'0 0.0
2018-Apr-09 10:28N 51°47' E 004°38'0 0.0
2018-Apr-09 09:58N 51°47' E 004°38'0 0.0
2018-Apr-09 09:28N 51°47' E 004°38'0 0.0
2018-Apr-09 08:55N 51°47' E 004°38'0 0.0
2018-Apr-09 08:28N 51°47' E 004°38'0 0.0
2018-Apr-09 07:58N 51°47' E 004°38'0 0.0
2018-Apr-09 07:28N 51°47' E 004°38'0 0.0
2018-Apr-09 06:58N 51°47' E 004°38'0 0.0
2018-Apr-09 06:28N 51°47' E 004°38'0 0.0
2018-Apr-09 05:58N 51°47' E 004°38'0 0.0
2018-Apr-09 05:25N 51°47' E 004°38'0 0.0
2018-Apr-09 04:55N 51°47' E 004°38'0 0.0
2018-Apr-09 04:28N 51°47' E 004°38'0 0.0
2018-Apr-09 03:43N 51°47' E 004°38'0 0.0
2018-Apr-09 03:28N 51°47' E 004°38'0 0.0
2018-Apr-09 02:58N 51°47' E 004°38'0 0.0
2018-Apr-09 02:01N 51°47' E 004°38'0 0.0
2018-Apr-09 01:58N 51°47' E 004°38'0 0.0
2018-Apr-09 01:25N 51°47' E 004°38'0 0.0
2018-Apr-09 00:58N 51°47' E 004°38'0 0.0
2018-Apr-09 00:28N 51°47' E 004°38'0 0.0
2018-Apr-08 23:55N 51°47' E 004°38'0 0.0
2018-Apr-08 23:28N 51°47' E 004°38'0 0.0
2018-Apr-08 22:58N 51°47' E 004°38'0 0.0
2018-Apr-08 22:28N 51°47' E 004°38'0 0.0
2018-Apr-08 21:43N 51°47' E 004°38'0 0.0
2018-Apr-08 21:28N 51°47' E 004°38'0 0.0
2018-Apr-08 20:52N 51°47' E 004°38'0 0.0
2018-Apr-08 20:28N 51°47' E 004°38'0 0.0
2018-Apr-08 19:40N 51°47' E 004°38'0 0.0
2018-Apr-08 19:30N 51°47' E 004°38'1 1.6
2018-Apr-08 19:00N 51°48' E 004°38'3 5.7
2018-Apr-08 18:30N 51°49' E 004°33'3 7.0
2018-Apr-08 18:00N 51°50' E 004°28'4 8.3
2018-Apr-08 17:30N 51°51' E 004°21'3 6.4
2018-Apr-08 17:00N 51°54' E 004°19'5 9.5
2018-Apr-08 16:30N 51°56' E 004°12'510.1
2018-Apr-08 16:00N 51°59' E 004°05'611.6
2018-Apr-08 15:30N 51°60' E 003°56'5 9.3
2018-Apr-08 15:01N 52°00' E 003°48'4 8.3
2018-Apr-08 14:30N 51°59' E 003°42'510.6
2018-Apr-08 13:59N 51°57' E 003°34'510.1
2018-Apr-08 13:30N 51°55' E 003°26'2 4.6
2018-Apr-08 12:59N 51°53' E 003°26'0 0.0
2018-Apr-08 12:26N 51°53' E 003°26'0 0.0
2018-Apr-08 11:53N 51°53' E 003°26'0 0.3
2018-Apr-08 11:29N 51°53' E 003°26'0 0.0
2018-Apr-08 09:35N 51°53' E 003°26'1 0.2
2018-Apr-08 06:46N 51°53' E 003°25'3 5.8
2018-Apr-08 06:14N 51°54' E 003°20'2 9.0
2018-Apr-08 05:58N 51°54' E 003°16'  
Track history (hours):
 
Tides and Currents Weather Stations Pressure Air Temp Water Temp Dewpoint Dewpoint Depression Visibility Wind Speed Wind Dir Waves Ship Positions

Adfines Star

Last reported at 2018-Apr-18 05:05 UTC. Time now 2018-Apr-19 17:09 UTC.
Position N 49°49' W 003°49'.

Length 162 m; draft 9 m.

Type: Tanker. MMSI: 256735000.

Date/timePositionNaut miles runAvg speedWind from/ knotsBaromVisibWave heightAir tempDewpointWater temp
2018-Apr-18 05:05N 49°49' W 003°49'1 9.8
2018-Apr-18 05:00N 49°49' W 003°48'810.2
2018-Apr-18 04:14N 49°51' W 003°36'311.4
2018-Apr-18 03:58N 49°52' W 003°31'612.5
2018-Apr-18 03:30N 49°54' W 003°23'713.0
2018-Apr-18 03:00N 49°55' W 003°13'713.6
2018-Apr-18 02:30N 49°57' W 003°03'713.9
2018-Apr-18 02:00N 49°60' W 002°52'713.8
2018-Apr-18 01:30N 50°02' W 002°42'3411.0
2018-Apr-17 22:25N 50°11' W 001°51'3 7.5
2018-Apr-17 22:00N 50°12' W 001°46'3 6.9
2018-Apr-17 21:30N 50°13' W 001°41'3 6.7
2018-Apr-17 21:00N 50°14' W 001°36'3 6.6
2018-Apr-17 20:30N 50°15' W 001°31'3 6.7
2018-Apr-17 20:00N 50°15' W 001°26'4 7.3
2018-Apr-17 19:30N 50°16' W 001°21'3912.3
2018-Apr-17 16:23N 50°27' W 000°23'514.2
2018-Apr-17 16:01N 50°29' W 000°15'713.9
2018-Apr-17 15:30N 50°31' W 000°04'713.7
2018-Apr-17 15:00N 50°33' E 000°06'713.3
2018-Apr-17 14:30N 50°35' E 000°16'613.0
2018-Apr-17 14:01N 50°36' E 000°26'612.3
2018-Apr-17 13:31N 50°37' E 000°35'611.6
2018-Apr-17 13:01N 50°41' E 000°43'611.1
2018-Apr-17 12:30N 50°44' E 000°50'510.6
2018-Apr-17 12:01N 50°48' E 000°56'510.6
2018-Apr-17 11:30N 50°51' E 001°03'510.4
2018-Apr-17 11:00N 50°54' E 001°09'710.9
2018-Apr-17 10:21N 50°59' E 001°18'411.9
2018-Apr-17 09:58N 51°02' E 001°23'613.6
2018-Apr-17 09:30N 51°06' E 001°31'715.1
2018-Apr-17 09:00N 51°11' E 001°40'715.0
2018-Apr-17 08:30N 51°16' E 001°48'714.7
2018-Apr-17 08:00N 51°22' E 001°55'611.9
2018-Apr-17 07:30N 51°24' E 002°04'713.2
2018-Apr-17 07:00N 51°21' E 002°13'612.8
2018-Apr-17 06:30N 51°22' E 002°24'713.3
2018-Apr-17 06:00N 51°23' E 002°34'712.9
2018-Apr-17 05:30N 51°22' E 002°45'711.8
2018-Apr-17 04:56N 51°23' E 002°55'512.0
2018-Apr-17 04:31N 51°25' E 003°03'612.4
2018-Apr-17 04:00N 51°25' E 003°13'612.5
2018-Apr-17 03:30N 51°25' E 003°23'612.4
2018-Apr-17 03:00N 51°26' E 003°33'611.4
2018-Apr-17 02:30N 51°26' E 003°42'1 2.4
2018-Apr-17 01:55N 51°25' E 003°44'0 0.0
2018-Apr-16 22:58N 51°25' E 003°44'0 0.0
2018-Apr-16 21:46N 51°25' E 003°44'0 0.0
2018-Apr-16 13:04N 51°25' E 003°44'0 0.0
2018-Apr-16 12:46N 51°25' E 003°44'0 0.0
2018-Apr-16 12:28N 51°25' E 003°44'0 0.0
2018-Apr-16 11:58N 51°25' E 003°44'0 0.0
2018-Apr-16 11:22N 51°25' E 003°44'0 0.0
2018-Apr-16 10:58N 51°25' E 003°44'0 0.0
2018-Apr-16 10:16N 51°25' E 003°44'0 0.0
2018-Apr-16 09:46N 51°25' E 003°44'0 0.0
2018-Apr-16 09:22N 51°25' E 003°44'0 0.0
2018-Apr-16 08:58N 51°25' E 003°44'0 0.0
2018-Apr-16 08:22N 51°25' E 003°44'0 0.0
2018-Apr-16 06:37N 51°25' E 003°44'0 0.0
2018-Apr-16 06:28N 51°25' E 003°44'0 0.0
2018-Apr-16 05:40N 51°25' E 003°44'0 0.0
2018-Apr-16 05:28N 51°25' E 003°44'0 0.0
2018-Apr-16 04:34N 51°25' E 003°44'0 0.1
2018-Apr-16 04:28N 51°25' E 003°44'0 0.0
2018-Apr-16 03:52N 51°25' E 003°44'0 0.0
2018-Apr-16 03:10N 51°25' E 003°44'0 0.0
2018-Apr-16 02:52N 51°25' E 003°44'0 0.0
2018-Apr-16 01:46N 51°25' E 003°44'0 0.0
2018-Apr-16 01:31N 51°25' E 003°44'1 2.6
2018-Apr-16 01:01N 51°25' E 003°42'4 6.9
2018-Apr-16 00:30N 51°26' E 003°36'510.9
2018-Apr-16 00:01N 51°29' E 003°30'611.3
2018-Apr-15 23:29N 51°34' E 003°25'612.0
2018-Apr-15 22:57N 51°40' E 003°19'612.3
2018-Apr-15 22:30N 51°45' E 003°16'2 3.9
2018-Apr-15 21:54N 51°46' E 003°19'0 0.0
2018-Apr-15 19:57N 51°46' E 003°19'0 0.0
2018-Apr-15 19:30N 51°46' E 003°19'0 0.0
2018-Apr-15 19:00N 51°46' E 003°19'0 0.0
2018-Apr-15 18:30N 51°46' E 003°19'0 0.1
2018-Apr-15 17:57N 51°46' E 003°19'0 0.1
2018-Apr-15 17:18N 51°46' E 003°19'0 0.1
2018-Apr-15 16:57N 51°46' E 003°19'0 0.1
2018-Apr-15 16:24N 51°46' E 003°19'0 0.0
2018-Apr-15 15:51N 51°46' E 003°19'0 0.0
2018-Apr-15 14:03N 51°46' E 003°19'0 0.1
2018-Apr-15 13:57N 51°46' E 003°19'0 0.0
2018-Apr-15 13:27N 51°46' E 003°19'0 0.1
2018-Apr-15 13:00N 51°46' E 003°19'0 0.0
2018-Apr-15 12:30N 51°46' E 003°19'0 0.0
2018-Apr-15 09:51N 51°46' E 003°19'0 0.0
2018-Apr-15 09:30N 51°46' E 003°19'0 0.0
2018-Apr-15 08:54N 51°46' E 003°19'0 0.0
2018-Apr-15 07:21N 51°46' E 003°19'0 0.0
2018-Apr-15 07:00N 51°46' E 003°19'0 0.0
2018-Apr-15 06:27N 51°46' E 003°19'0 0.0
2018-Apr-15 06:00N 51°46' E 003°19'0 0.0
2018-Apr-15 05:15N 51°46' E 003°19'0 0.1
2018-Apr-15 04:42N 51°46' E 003°19'0 0.1
2018-Apr-15 04:21N 51°46' E 003°19'0 0.0
2018-Apr-15 03:24N 51°46' E 003°19'0 0.0
2018-Apr-15 02:51N 51°46' E 003°19'0 0.0
2018-Apr-15 02:24N 51°46' E 003°19'0 0.0
2018-Apr-15 01:57N 51°46' E 003°19'0 0.0
2018-Apr-15 01:24N 51°46' E 003°19'0 0.0
2018-Apr-15 01:00N 51°46' E 003°19'0 0.0
2018-Apr-15 00:30N 51°46' E 003°19'0 0.0
2018-Apr-15 00:00N 51°46' E 003°19'0 0.1
2018-Apr-14 23:27N 51°46' E 003°19'0 0.0
2018-Apr-14 16:54N 51°46' E 003°19'0 0.0
2018-Apr-14 13:30N 51°46' E 003°19'0 0.0
2018-Apr-14 12:33N 51°46' E 003°19'0 0.0
2018-Apr-14 12:27N 51°46' E 003°19'0 0.0
2018-Apr-14 11:42N 51°46' E 003°19'0 0.1
2018-Apr-14 11:27N 51°46' E 003°19'0 0.1
2018-Apr-14 10:57N 51°46' E 003°19'0 0.2
2018-Apr-14 10:24N 51°46' E 003°19'2 4.8
2018-Apr-14 10:00N 51°45' E 003°18'5 9.9
2018-Apr-14 09:29N 51°40' E 003°20'612.3
2018-Apr-14 09:00N 51°35' E 003°24'611.1
2018-Apr-14 08:30N 51°30' E 003°29'510.3
2018-Apr-14 08:00N 51°26' E 003°35'612.0
2018-Apr-14 07:30N 51°24' E 003°44'1 2.3
2018-Apr-14 06:58N 51°24' E 003°46'0 0.0
2018-Apr-14 06:28N 51°24' E 003°46'0 0.0
2018-Apr-14 05:58N 51°24' E 003°46'0 0.0
2018-Apr-14 05:28N 51°24' E 003°46'0 0.0
2018-Apr-14 04:58N 51°24' E 003°46'0 0.0
2018-Apr-14 04:28N 51°24' E 003°46'0 0.0
2018-Apr-14 03:58N 51°24' E 003°46'0 0.0
2018-Apr-14 03:25N 51°24' E 003°46'0 0.1
2018-Apr-14 02:58N 51°24' E 003°46'0 0.1
2018-Apr-14 02:28N 51°24' E 003°46'0 0.0
2018-Apr-14 01:58N 51°24' E 003°46'0 0.3
2018-Apr-14 01:28N 51°24' E 003°46'0 0.0
2018-Apr-14 00:58N 51°24' E 003°46'0 0.0
2018-Apr-14 00:28N 51°24' E 003°46'0 0.0
2018-Apr-13 23:58N 51°24' E 003°46'0 0.0
2018-Apr-13 23:28N 51°24' E 003°46'0 0.0
2018-Apr-13 22:58N 51°24' E 003°46'0 0.0
2018-Apr-13 22:28N 51°24' E 003°46'0 0.0
2018-Apr-13 21:58N 51°24' E 003°46'0 0.0
2018-Apr-13 21:28N 51°24' E 003°46'0 0.0
2018-Apr-13 20:55N 51°24' E 003°46'0 0.0
2018-Apr-13 20:25N 51°24' E 003°46'0 0.0
2018-Apr-13 19:58N 51°24' E 003°46'0 0.2
2018-Apr-13 19:28N 51°24' E 003°46'0 0.1
2018-Apr-13 18:58N 51°24' E 003°46'0 0.0
2018-Apr-13 18:28N 51°24' E 003°46'0 0.0
2018-Apr-13 17:58N 51°24' E 003°46'0 0.1
2018-Apr-13 17:25N 51°24' E 003°46'0 0.0
2018-Apr-13 16:58N 51°24' E 003°46'0 0.0
2018-Apr-13 16:25N 51°24' E 003°46'0 0.0
2018-Apr-13 15:55N 51°24' E 003°46'0 0.0
2018-Apr-13 15:28N 51°24' E 003°46'0 0.0
2018-Apr-13 14:58N 51°24' E 003°46'0 0.0
2018-Apr-13 14:28N 51°24' E 003°46'0 0.3
2018-Apr-13 13:58N 51°24' E 003°46'0 0.2
2018-Apr-13 13:28N 51°24' E 003°46'0 0.0
2018-Apr-13 12:58N 51°24' E 003°46'0 0.0
2018-Apr-13 12:25N 51°24' E 003°46'0 0.0
2018-Apr-13 11:58N 51°24' E 003°46'0 0.0
2018-Apr-13 11:28N 51°24' E 003°46'0 0.0
2018-Apr-13 10:55N 51°24' E 003°46'0 0.0
2018-Apr-13 10:28N 51°24' E 003°46'0 0.0
2018-Apr-13 09:58N 51°24' E 003°46'0 0.0
2018-Apr-13 09:28N 51°24' E 003°46'0 0.0
2018-Apr-13 08:55N 51°24' E 003°46'0 1.0
2018-Apr-13 08:30N 51°24' E 003°45'4 7.3
2018-Apr-13 08:01N 51°26' E 003°41'612.5
2018-Apr-13 07:30N 51°27' E 003°31'814.4
2018-Apr-13 06:58N 51°34' E 003°25'612.7
2018-Apr-13 06:30N 51°39' E 003°19'9 1.8
2018-Apr-13 01:29N 51°48' E 003°20'0 0.1
2018-Apr-12 23:51N 51°48' E 003°20'1 2.9
2018-Apr-12 23:30N 51°48' E 003°18'3 5.8
2018-Apr-12 22:57N 51°46' E 003°14'18 3.0
2018-Apr-12 16:54N 52°03' E 003°20'1412.5
2018-Apr-12 15:47N 52°04' E 003°43'412.7
2018-Apr-12 15:30N 52°03' E 003°49'4 8.5
2018-Apr-12 15:00N 52°02' E 003°55'612.4
2018-Apr-12 14:30N 51°59' E 004°04'612.7
2018-Apr-12 14:00N 51°56' E 004°13'510.3
2018-Apr-12 13:30N 51°54' E 004°21'0 0.0
2018-Apr-12 03:14N 51°53' E 004°21'0 0.0
2018-Apr-12 02:50N 51°53' E 004°21'0 0.0
2018-Apr-12 02:26N 51°53' E 004°21'0 0.0
2018-Apr-12 01:50N 51°53' E 004°21'0 0.0
2018-Apr-12 01:26N 51°53' E 004°21'0 0.0
2018-Apr-12 00:44N 51°53' E 004°21'0 0.0
2018-Apr-12 00:20N 51°53' E 004°21'0 0.0
2018-Apr-11 23:26N 51°53' E 004°21'0 0.0
2018-Apr-11 22:38N 51°53' E 004°21'0 0.0
2018-Apr-11 22:26N 51°53' E 004°21'0 0.0
2018-Apr-11 20:02N 51°53' E 004°21'0 0.0
2018-Apr-11 18:17N 51°53' E 004°21'0 0.0
2018-Apr-11 17:59N 51°53' E 004°21'0 0.0
2018-Apr-11 05:56N 51°53' E 004°21'0 0.0
2018-Apr-11 05:20N 51°53' E 004°21'0 0.0
2018-Apr-11 04:50N 51°53' E 004°21'0 0.0
2018-Apr-11 04:20N 51°53' E 004°21'0 0.0
2018-Apr-11 02:38N 51°53' E 004°21'0 0.0
2018-Apr-11 02:23N 51°53' E 004°21'0 0.0
2018-Apr-11 01:50N 51°53' E 004°21'0 0.0
2018-Apr-11 00:50N 51°53' E 004°21'0 0.0
2018-Apr-11 00:20N 51°53' E 004°21'0 0.0
2018-Apr-10 23:56N 51°53' E 004°21'0 0.0
2018-Apr-10 23:26N 51°53' E 004°21'0 0.0
2018-Apr-10 23:00N 51°53' E 004°21'0 0.3
2018-Apr-10 22:30N 51°53' E 004°21'1 1.8
2018-Apr-10 22:00N 51°54' E 004°19'3 6.0
2018-Apr-10 21:30N 51°51' E 004°22'3 5.2
2018-Apr-10 21:00N 51°50' E 004°26'3 5.3
2018-Apr-10 20:30N 51°50' E 004°30'4 7.2
2018-Apr-10 20:00N 51°48' E 004°35'2 4.4
2018-Apr-10 19:30N 51°47' E 004°38'0 0.0
2018-Apr-10 18:58N 51°47' E 004°38'0 0.0
2018-Apr-10 18:16N 51°47' E 004°38'0 0.0
2018-Apr-10 17:52N 51°47' E 004°38'0 0.0
2018-Apr-10 17:28N 51°47' E 004°38'0 0.0
2018-Apr-10 16:46N 51°47' E 004°38'0 0.0
2018-Apr-10 16:28N 51°47' E 004°38'0 0.0
2018-Apr-10 15:40N 51°47' E 004°38'0 0.0
2018-Apr-10 15:25N 51°47' E 004°38'0 0.0
2018-Apr-10 14:52N 51°47' E 004°38'0 0.0
2018-Apr-10 14:22N 51°47' E 004°38'0 0.0
2018-Apr-10 13:58N 51°47' E 004°38'0 0.0
2018-Apr-10 12:46N 51°47' E 004°38'0 0.0
2018-Apr-10 12:28N 51°47' E 004°38'0 0.0
2018-Apr-10 11:31N 51°47' E 004°38'0 0.0
2018-Apr-10 10:34N 51°47' E 004°38'0 0.0
2018-Apr-10 10:22N 51°47' E 004°38'0 0.0
2018-Apr-10 09:55N 51°47' E 004°38'0 0.0
2018-Apr-10 09:28N 51°47' E 004°38'0 0.0
2018-Apr-10 08:28N 51°47' E 004°38'0 0.0
2018-Apr-10 07:58N 51°47' E 004°38'0 0.0
2018-Apr-10 07:28N 51°47' E 004°38'0 0.0
2018-Apr-10 06:58N 51°47' E 004°38'0 0.0
2018-Apr-10 06:28N 51°47' E 004°38'0 0.0
2018-Apr-10 05:58N 51°47' E 004°38'0 0.0
2018-Apr-10 05:25N 51°47' E 004°38'0 0.0
2018-Apr-10 04:22N 51°47' E 004°38'0 0.0
2018-Apr-10 03:46N 51°47' E 004°38'0 0.0
2018-Apr-10 03:28N 51°47' E 004°38'0 0.0
2018-Apr-10 02:52N 51°47' E 004°38'0 0.0
2018-Apr-10 02:25N 51°47' E 004°38'0 0.0
2018-Apr-10 01:58N 51°47' E 004°38'0 0.0
2018-Apr-10 01:28N 51°47' E 004°38'0 0.0
2018-Apr-10 00:58N 51°47' E 004°38'0 0.0
2018-Apr-10 00:10N 51°47' E 004°38'0 0.0
2018-Apr-09 23:55N 51°47' E 004°38'0 0.0
2018-Apr-09 23:22N 51°47' E 004°38'0 0.0
2018-Apr-09 22:55N 51°47' E 004°38'0 0.0
2018-Apr-09 22:28N 51°47' E 004°38'0 0.0
2018-Apr-09 21:55N 51°47' E 004°38'0 0.0
2018-Apr-09 21:19N 51°47' E 004°38'0 0.0
2018-Apr-09 20:58N 51°47' E 004°38'0 0.0
2018-Apr-09 20:28N 51°47' E 004°38'0 0.0
2018-Apr-09 19:55N 51°47' E 004°38'0 0.0
2018-Apr-09 19:19N 51°47' E 004°38'0 0.0
2018-Apr-09 18:49N 51°47' E 004°38'0 0.0
2018-Apr-09 18:25N 51°47' E 004°38'0 0.0
2018-Apr-09 17:49N 51°47' E 004°38'0 0.0
2018-Apr-09 17:22N 51°47' E 004°38'0 0.0
2018-Apr-09 16:58N 51°47' E 004°38'0 0.0
2018-Apr-09 16:25N 51°47' E 004°38'0 0.0
2018-Apr-09 15:52N 51°47' E 004°38'0 0.0
2018-Apr-09 15:19N 51°47' E 004°38'0 0.0
2018-Apr-09 14:58N 51°47' E 004°38'0 0.0
2018-Apr-09 14:28N 51°47' E 004°38'0 0.0
2018-Apr-09 13:55N 51°47' E 004°38'0 0.0
2018-Apr-09 13:28N 51°47' E 004°38'0 0.0
2018-Apr-09 12:58N 51°47' E 004°38'0 0.0
2018-Apr-09 12:13N 51°47' E 004°38'0 0.0
2018-Apr-09 11:58N 51°47' E 004°38'0 0.0
2018-Apr-09 11:28N 51°47' E 004°38'0 0.0
2018-Apr-09 10:55N 51°47' E 004°38'0 0.0
2018-Apr-09 10:28N 51°47' E 004°38'0 0.0
2018-Apr-09 09:58N 51°47' E 004°38'0 0.0
2018-Apr-09 09:28N 51°47' E 004°38'0 0.0
2018-Apr-09 08:55N 51°47' E 004°38'0 0.0
2018-Apr-09 08:28N 51°47' E 004°38'0 0.0
2018-Apr-09 07:58N 51°47' E 004°38'0 0.0
2018-Apr-09 07:28N 51°47' E 004°38'0 0.0
2018-Apr-09 06:58N 51°47' E 004°38'0 0.0
2018-Apr-09 06:28N 51°47' E 004°38'0 0.0
2018-Apr-09 05:58N 51°47' E 004°38'0 0.0
2018-Apr-09 05:25N 51°47' E 004°38'0 0.0
2018-Apr-09 04:55N 51°47' E 004°38'0 0.0
2018-Apr-09 04:28N 51°47' E 004°38'0 0.0
2018-Apr-09 03:43N 51°47' E 004°38'0 0.0
2018-Apr-09 03:28N 51°47' E 004°38'0 0.0
2018-Apr-09 02:58N 51°47' E 004°38'0 0.0
2018-Apr-09 02:01N 51°47' E 004°38'0 0.0
2018-Apr-09 01:58N 51°47' E 004°38'0 0.0
2018-Apr-09 01:25N 51°47' E 004°38'0 0.0
2018-Apr-09 00:58N 51°47' E 004°38'0 0.0
2018-Apr-09 00:28N 51°47' E 004°38'0 0.0
2018-Apr-08 23:55N 51°47' E 004°38'0 0.0
2018-Apr-08 23:28N 51°47' E 004°38'0 0.0
2018-Apr-08 22:58N 51°47' E 004°38'0 0.0
2018-Apr-08 22:28N 51°47' E 004°38'0 0.0
2018-Apr-08 21:43N 51°47' E 004°38'0 0.0
2018-Apr-08 21:28N 51°47' E 004°38'0 0.0
2018-Apr-08 20:52N 51°47' E 004°38'0 0.0
2018-Apr-08 20:28N 51°47' E 004°38'0 0.0
2018-Apr-08 19:40N 51°47' E 004°38'0 0.0
2018-Apr-08 19:30N 51°47' E 004°38'1 1.6
2018-Apr-08 19:00N 51°48' E 004°38'3 5.7
2018-Apr-08 18:30N 51°49' E 004°33'3 7.0
2018-Apr-08 18:00N 51°50' E 004°28'4 8.3
2018-Apr-08 17:30N 51°51' E 004°21'3 6.4
2018-Apr-08 17:00N 51°54' E 004°19'5 9.5
2018-Apr-08 16:30N 51°56' E 004°12'510.1
2018-Apr-08 16:00N 51°59' E 004°05'611.6
2018-Apr-08 15:30N 51°60' E 003°56'5 9.3
2018-Apr-08 15:01N 52°00' E 003°48'4 8.3
2018-Apr-08 14:30N 51°59' E 003°42'510.6
2018-Apr-08 13:59N 51°57' E 003°34'510.1
2018-Apr-08 13:30N 51°55' E 003°26'2 4.6
2018-Apr-08 12:59N 51°53' E 003°26'0 0.0
2018-Apr-08 12:26N 51°53' E 003°26'0 0.0
2018-Apr-08 11:53N 51°53' E 003°26'0 0.3
2018-Apr-08 11:29N 51°53' E 003°26'0 0.0
2018-Apr-08 09:35N 51°53' E 003°26'1 0.2
2018-Apr-08 06:46N 51°53' E 003°25'3 5.8
2018-Apr-08 06:14N 51°54' E 003°20'2 9.0
2018-Apr-08 05:58N 51°54' E 003°16'  

Dump ship's entire track history